createdAt,value
2016-06-04T00:00:43.857Z,0
2016-06-04T00:02:43.908Z,0
2016-06-04T00:03:43.928Z,0
2016-06-04T00:04:43.977Z,0
2016-06-04T00:05:43.980Z,0
2016-06-04T00:06:44.014Z,0
2016-06-04T00:07:58.219Z,0
2016-06-04T00:08:44.097Z,0
2016-06-04T00:09:44.085Z,0
2016-06-04T00:10:44.649Z,0
2016-06-04T00:11:47.292Z,0
2016-06-04T00:12:58.343Z,0
2016-06-04T00:13:44.188Z,0
2016-06-04T00:14:58.395Z,0
2016-06-04T00:16:44.259Z,0
2016-06-04T00:17:44.293Z,0
2016-06-04T00:18:58.498Z,0
2016-06-04T00:20:44.348Z,0
2016-06-04T00:21:44.398Z,0
2016-06-04T00:22:58.603Z,0
2016-06-04T00:23:44.434Z,0
2016-06-04T00:24:44.453Z,0
2016-06-04T00:25:58.675Z,0
2016-06-04T00:26:44.973Z,0
2016-06-04T00:27:58.710Z,0
2016-06-04T00:28:44.558Z,0
2016-06-04T00:29:44.575Z,0
2016-06-04T00:30:58.797Z,0
2016-06-04T00:31:44.627Z,0
2016-06-04T00:32:44.661Z,0
2016-06-04T00:33:44.696Z,0
2016-06-04T00:34:58.745Z,0
2016-06-04T00:35:44.732Z,0
2016-06-04T00:36:44.750Z,0
2016-06-04T00:37:44.785Z,0
2016-06-04T00:38:44.803Z,0
2016-06-04T00:39:44.837Z,0
2016-06-04T00:40:45.652Z,0
2016-06-04T00:41:59.139Z,0
2016-06-04T00:42:44.907Z,0
2016-06-04T00:43:44.926Z,0
2016-06-04T00:44:59.146Z,0
2016-06-04T00:45:59.166Z,0
2016-06-04T00:46:59.215Z,0
2016-06-04T00:48:45.064Z,0
2016-06-04T00:49:45.098Z,0
2016-06-04T00:50:45.117Z,0
2016-06-04T00:51:45.134Z,0
2016-06-04T00:52:45.154Z,0
2016-06-04T00:54:45.298Z,0
2016-06-04T00:55:45.083Z,0
2016-06-04T00:56:45.273Z,0
2016-06-04T00:57:45.292Z,0
2016-06-04T00:58:45.321Z,0
2016-06-04T00:59:45.374Z,0
2016-06-04T01:00:45.440Z,0
2016-06-04T01:01:59.680Z,0
2016-06-04T01:02:45.545Z,0
2016-06-04T01:03:45.604Z,0
2016-06-04T01:04:45.650Z,0
2016-06-04T01:05:45.665Z,0
2016-06-04T01:06:45.710Z,0
2016-06-04T01:08:45.814Z,0
2016-06-04T01:09:45.821Z,0
2016-06-04T01:10:46.422Z,0
2016-06-04T01:11:45.960Z,0
2016-06-04T01:12:45.905Z,0
2016-06-04T01:13:45.927Z,0
2016-06-04T01:14:45.946Z,0
2016-06-04T01:15:45.997Z,0
2016-06-04T01:16:46.032Z,0
2016-06-04T01:17:46.053Z,0
2016-06-04T01:18:46.072Z,0
2016-06-04T01:20:46.110Z,0
2016-06-04T01:21:46.128Z,0
2016-06-04T01:23:00.350Z,0
2016-06-04T01:23:46.197Z,0
2016-06-04T01:24:46.216Z,0
2016-06-04T01:26:00.719Z,0
2016-06-04T01:26:46.472Z,0
2016-06-04T01:28:00.475Z,0
2016-06-04T01:28:46.306Z,0
2016-06-04T01:30:00.527Z,0
2016-06-04T01:31:00.546Z,0
2016-06-04T01:31:46.376Z,0
2016-06-04T01:32:46.410Z,0
2016-06-04T01:34:00.616Z,0
2016-06-04T01:34:46.463Z,0
2016-06-04T01:35:46.481Z,0
2016-06-04T01:36:46.515Z,0
2016-06-04T01:37:46.534Z,0
2016-06-04T01:38:46.567Z,0
2016-06-04T01:39:46.586Z,0
2016-06-04T01:40:46.620Z,0
2016-06-04T01:41:46.513Z,0
2016-06-04T01:42:46.656Z,0
2016-06-04T01:43:46.690Z,0
2016-06-04T01:45:00.896Z,0
2016-06-04T01:45:46.805Z,0
2016-06-04T01:46:46.745Z,0
2016-06-04T01:47:46.795Z,0
2016-06-04T01:48:46.797Z,0
2016-06-04T01:50:01.019Z,0
2016-06-04T01:50:46.865Z,0
2016-06-04T01:51:46.883Z,0
2016-06-04T01:52:46.902Z,0
2016-06-04T01:54:46.954Z,0
2016-06-04T01:55:46.707Z,0
2016-06-04T01:56:47.007Z,0
2016-06-04T01:57:47.025Z,0
2016-06-04T01:58:47.043Z,0
2016-06-04T01:59:47.076Z,0
2016-06-04T02:00:47.111Z,0
2016-06-04T02:02:01.332Z,4
2016-06-04T02:02:47.162Z,4
2016-06-04T02:03:47.182Z,4
2016-06-04T02:04:47.215Z,0
2016-06-04T02:06:01.389Z,0
2016-06-04T02:06:47.331Z,4
2016-06-04T02:07:47.270Z,4
2016-06-04T02:08:47.288Z,0
2016-06-04T02:09:47.307Z,4
2016-06-04T02:10:47.795Z,4
2016-06-04T02:11:49.530Z,4
2016-06-04T02:12:47.409Z,8
2016-06-04T02:13:47.427Z,4
2016-06-04T02:14:47.445Z,4
2016-06-04T02:15:47.479Z,8
2016-06-04T02:16:47.497Z,8
2016-06-04T02:17:47.547Z,8
2016-06-04T02:18:47.534Z,12
2016-06-04T02:19:47.568Z,12
2016-06-04T02:20:47.586Z,12
2016-06-04T02:22:01.808Z,16
2016-06-04T02:23:47.658Z,20
2016-06-04T02:25:47.927Z,24
2016-06-04T02:26:48.118Z,28
2016-06-04T02:27:47.746Z,32
2016-06-04T02:30:47.832Z,40
2016-06-04T02:31:47.851Z,48
2016-06-04T02:32:47.868Z,52
2016-06-04T02:33:47.903Z,60
2016-06-04T02:34:47.921Z,64
2016-06-04T02:35:47.971Z,76
2016-06-04T02:37:02.161Z,84
2016-06-04T02:37:48.006Z,92
2016-06-04T02:38:48.042Z,104
2016-06-04T02:39:48.059Z,112
2016-06-04T02:40:47.937Z,128
2016-06-04T02:41:48.143Z,140
2016-06-04T02:43:48.148Z,172
2016-06-04T02:45:02.370Z,192
2016-06-04T02:45:48.200Z,200
2016-06-04T02:46:48.219Z,220
2016-06-04T02:47:48.252Z,236
2016-06-04T02:50:02.477Z,284
2016-06-04T02:50:48.324Z,300
2016-06-04T02:51:48.341Z,324
2016-06-04T02:52:48.360Z,348
2016-06-04T02:53:48.378Z,372
2016-06-04T02:54:48.413Z,396
2016-06-04T02:55:49.618Z,420
2016-06-04T02:56:48.574Z,448
2016-06-04T02:58:02.685Z,480
2016-06-04T02:58:48.516Z,500
2016-06-04T02:59:48.535Z,536
2016-06-04T03:00:48.601Z,568
2016-06-04T03:01:48.587Z,608
2016-06-04T03:02:48.637Z,644
2016-06-04T03:03:48.655Z,688
2016-06-04T03:04:48.674Z,732
2016-06-04T03:06:02.864Z,784
2016-06-04T03:06:48.695Z,820
2016-06-04T03:07:48.729Z,860
2016-06-04T03:09:02.950Z,916
2016-06-04T03:09:48.781Z,956
2016-06-04T03:10:49.205Z,1000
2016-06-04T03:12:48.851Z,1100
2016-06-04T03:13:48.901Z,1160
2016-06-04T03:14:48.903Z,1220
2016-06-04T03:15:48.922Z,1284
2016-06-04T03:17:03.144Z,1360
2016-06-04T03:18:03.161Z,1424
2016-06-04T03:18:49.009Z,1476
2016-06-04T03:19:49.011Z,1540
2016-06-04T03:20:49.044Z,1600
2016-06-04T03:22:03.267Z,1680
2016-06-04T03:23:03.285Z,1752
2016-06-04T03:24:03.303Z,1824
2016-06-04T03:25:03.352Z,1900
2016-06-04T03:25:49.402Z,1956
2016-06-04T03:26:50.499Z,2024
2016-06-04T03:27:49.205Z,2096
2016-06-04T03:28:49.238Z,2172
2016-06-04T03:29:49.257Z,2244
2016-06-04T03:30:49.291Z,2320
2016-06-04T03:31:49.310Z,2388
2016-06-04T03:32:49.326Z,2464
2016-06-04T03:33:49.346Z,2544
2016-06-04T03:36:49.447Z,2792
2016-06-04T03:37:49.465Z,2876
2016-06-04T03:39:49.502Z,3352
2016-06-04T03:41:03.723Z,3812
2016-06-04T03:42:49.572Z,4052
2016-06-04T03:43:49.606Z,3668
2016-06-04T03:44:49.625Z,3732
2016-06-04T03:46:49.678Z,3804
2016-06-04T03:48:49.730Z,4124
2016-06-04T03:49:49.747Z,4112
2016-06-04T03:51:03.969Z,4272
2016-06-04T03:51:49.815Z,4308
2016-06-04T03:52:49.834Z,4452
2016-06-04T03:53:49.852Z,4572
2016-06-04T03:54:49.871Z,4716
2016-06-04T03:55:51.154Z,4840
2016-06-04T03:57:04.110Z,4956
2016-06-04T03:58:49.975Z,5196
2016-06-04T03:59:49.993Z,5324
2016-06-04T04:00:50.027Z,5412
2016-06-04T04:01:50.046Z,5508
2016-06-04T04:02:50.064Z,5608
2016-06-04T04:03:50.098Z,5696
2016-06-04T04:04:50.116Z,5812
2016-06-04T04:05:50.151Z,5976
2016-06-04T04:06:50.168Z,6728
2016-06-04T04:07:50.187Z,6924
2016-06-04T04:08:50.204Z,6732
2016-06-04T04:09:50.239Z,9724
2016-06-04T04:10:50.460Z,20256
2016-06-04T04:12:04.463Z,27424
2016-06-04T04:12:50.325Z,27456
2016-06-04T04:13:50.343Z,30016
2016-06-04T04:14:50.378Z,30400
2016-06-04T04:16:50.414Z,31200
2016-06-04T04:17:50.448Z,25280
2016-06-04T04:18:50.466Z,24128
2016-06-04T04:19:50.500Z,28640
2016-06-04T04:20:50.519Z,29792
2016-06-04T04:21:50.553Z,32064
2016-06-04T04:22:50.586Z,34112
2016-06-04T04:24:04.777Z,32928
2016-06-04T04:25:04.811Z,33536
2016-06-04T04:25:51.033Z,34720
2016-06-04T04:26:51.394Z,37824
2016-06-04T04:27:50.707Z,37888
2016-06-04T04:28:50.741Z,39968
2016-06-04T04:29:50.777Z,39936
2016-06-04T04:30:50.795Z,38176
2016-06-04T04:31:50.845Z,38688
2016-06-04T04:32:50.848Z,39456
2016-06-04T04:33:50.882Z,39584
2016-06-04T04:34:50.915Z,40224
2016-06-04T04:35:50.934Z,42720
2016-06-04T04:36:50.984Z,43392
2016-06-04T04:37:51.001Z,43616
2016-06-04T04:38:51.052Z,41696
2016-06-04T04:40:05.242Z,44128
2016-06-04T04:40:50.945Z,45440
2016-06-04T04:41:51.168Z,45536
2016-06-04T04:43:05.359Z,46336
2016-06-04T04:44:05.393Z,46816
2016-06-04T04:44:51.221Z,47744
2016-06-04T04:45:51.271Z,47808
2016-06-04T04:46:51.273Z,50016
2016-06-04T04:47:51.307Z,51648
2016-06-04T04:48:51.341Z,51168
2016-06-04T04:49:51.359Z,51040
2016-06-04T04:50:51.394Z,51008
2016-06-04T04:51:51.428Z,52256
2016-06-04T04:52:51.477Z,51456
2016-06-04T04:53:51.495Z,43584
2016-06-04T04:56:06.331Z,33248
2016-06-04T04:56:51.863Z,35328
2016-06-04T04:57:51.662Z,43104
2016-06-04T04:58:51.650Z,50400
2016-06-04T05:00:51.732Z,53056
2016-06-04T05:01:51.766Z,57216
2016-06-04T05:02:51.769Z,58784
2016-06-04T05:04:05.994Z,54528
2016-06-04T05:04:51.838Z,53728
2016-06-04T05:05:51.871Z,51136
2016-06-04T05:06:51.905Z,51584
2016-06-04T05:07:51.940Z,48672
2016-06-04T05:08:51.988Z,49440
2016-06-04T05:09:52.023Z,52448
2016-06-04T05:11:52.075Z,41696
2016-06-04T05:12:52.109Z,56992
2016-06-04T05:13:52.127Z,59968
2016-06-04T05:14:52.162Z,58816
2016-06-04T05:16:52.072Z,44640
2016-06-04T05:17:52.263Z,56064
2016-06-04T05:18:52.312Z,56160
2016-06-04T05:19:52.331Z,61696
2016-06-04T05:20:52.350Z,64032
2016-06-04T05:21:52.399Z,66848
2016-06-04T05:22:52.448Z,67904
2016-06-04T05:23:52.482Z,68608
2016-06-04T05:24:52.501Z,68672
2016-06-04T05:25:52.675Z,67264
2016-06-04T05:26:54.086Z,66080
2016-06-04T05:27:52.602Z,66272
2016-06-04T05:28:52.652Z,65792
2016-06-04T05:29:52.670Z,64736
2016-06-04T05:30:52.704Z,65792
2016-06-04T05:32:06.928Z,65408
2016-06-04T05:32:52.882Z,65120
2016-06-04T05:33:52.806Z,66816
2016-06-04T05:35:07.046Z,67680
2016-06-04T05:35:52.874Z,69312
2016-06-04T05:36:52.907Z,68800
2016-06-04T05:37:52.958Z,67584
2016-06-04T05:38:52.835Z,68224
2016-06-04T05:40:07.216Z,67680
2016-06-04T05:40:53.075Z,68064
2016-06-04T05:41:53.484Z,72128
2016-06-04T05:42:53.127Z,70816
2016-06-04T05:43:53.004Z,65920
2016-06-04T05:45:07.385Z,57536
2016-06-04T05:46:07.419Z,41472
2016-06-04T05:47:07.453Z,31872
2016-06-04T05:47:53.297Z,51936
2016-06-04T05:48:53.346Z,63616
2016-06-04T05:49:53.224Z,51328
2016-06-04T05:50:53.430Z,59744
2016-06-04T05:51:53.448Z,55008
2016-06-04T05:52:53.561Z,46400
2016-06-04T05:53:53.516Z,42144
2016-06-04T05:54:53.566Z,48608
2016-06-04T05:55:53.600Z,53216
2016-06-04T05:56:53.742Z,44832
2016-06-04T05:57:53.652Z,41120
2016-06-04T05:58:53.702Z,30176
2016-06-04T05:59:53.720Z,26112
2016-06-04T06:01:53.788Z,22816
2016-06-04T06:02:53.852Z,20704
2016-06-04T06:03:53.872Z,23488
2016-06-04T06:04:53.905Z,22720
2016-06-04T06:05:53.924Z,26688
2016-06-04T06:06:53.973Z,59584
2016-06-04T06:07:54.007Z,27264
2016-06-04T06:08:54.056Z,26688
2016-06-04T06:09:54.106Z,31200
2016-06-04T06:10:54.109Z,34624
2016-06-04T06:11:54.018Z,42400
2016-06-04T06:12:54.176Z,51488
2016-06-04T06:13:54.226Z,52032
2016-06-04T06:14:54.245Z,39552
2016-06-04T06:15:54.279Z,27232
2016-06-04T06:16:54.312Z,23680
2016-06-04T06:17:54.362Z,25952
2016-06-04T06:19:08.586Z,23232
2016-06-04T06:20:54.448Z,22464
2016-06-04T06:22:54.516Z,21728
2016-06-04T06:23:54.550Z,21440
2016-06-04T06:24:54.583Z,21920
2016-06-04T06:25:54.649Z,29632
2016-06-04T06:26:54.840Z,38048
2016-06-04T06:27:54.670Z,30176
2016-06-04T06:28:54.719Z,60160
2016-06-04T06:29:54.738Z,74688
2016-06-04T06:30:54.788Z,73088
2016-06-04T06:31:54.821Z,74016
2016-06-04T06:33:54.889Z,64224
2016-06-04T06:35:09.191Z,64512
2016-06-04T06:35:54.957Z,68320
2016-06-04T06:36:54.819Z,69536
2016-06-04T06:38:55.043Z,65760
2016-06-04T06:39:55.093Z,64608
2016-06-04T06:40:55.580Z,63648
2016-06-04T06:41:55.551Z,64736
2016-06-04T06:42:55.195Z,64992
2016-06-04T06:43:55.229Z,65696
2016-06-04T06:44:55.262Z,66080
2016-06-04T06:46:55.174Z,64128
2016-06-04T06:47:55.505Z,62848
2016-06-04T06:49:09.604Z,62560
2016-06-04T06:49:55.464Z,63424
2016-06-04T06:51:09.673Z,65472
2016-06-04T06:51:55.532Z,64448
2016-06-04T06:52:55.550Z,63296
2016-06-04T06:53:55.584Z,65152
2016-06-04T06:55:55.980Z,63232
2016-06-04T06:56:57.110Z,63232
2016-06-04T06:57:55.766Z,62944
2016-06-04T06:58:55.784Z,61728
2016-06-04T06:59:55.834Z,61504
2016-06-04T07:00:55.853Z,62944
2016-06-04T07:01:55.887Z,62304
2016-06-04T07:02:55.936Z,63616
2016-06-04T07:03:55.970Z,63232
2016-06-04T07:04:56.004Z,62464
2016-06-04T07:06:10.244Z,61792
2016-06-04T07:07:10.263Z,61632
2016-06-04T07:07:56.200Z,60736
2016-06-04T07:09:10.345Z,59296
2016-06-04T07:09:56.188Z,59040
2016-06-04T07:11:11.101Z,60992
2016-06-04T07:11:57.460Z,60320
2016-06-04T07:13:10.496Z,62560
2016-06-04T07:13:56.340Z,63552
2016-06-04T07:14:56.219Z,62080
2016-06-04T07:15:56.549Z,62976
2016-06-04T07:16:56.442Z,62144
2016-06-04T07:17:56.523Z,61248
2016-06-04T07:18:56.526Z,60704
2016-06-04T07:19:56.591Z,60576
2016-06-04T07:20:56.593Z,60864
2016-06-04T07:22:10.678Z,59392
2016-06-04T07:22:56.693Z,58016
2016-06-04T07:23:56.727Z,58848
2016-06-04T07:24:56.761Z,56960
2016-06-04T07:25:56.669Z,56704
2016-06-04T07:27:11.253Z,60192
2016-06-04T07:27:56.862Z,61920
2016-06-04T07:28:56.928Z,61280
2016-06-04T07:29:56.931Z,62752
2016-06-04T07:31:11.170Z,60864
2016-06-04T07:31:57.014Z,59136
2016-06-04T07:33:11.238Z,59168
2016-06-04T07:33:57.082Z,59776
2016-06-04T07:35:11.447Z,51168
2016-06-04T07:35:57.228Z,61216
2016-06-04T07:36:57.215Z,62464
2016-06-04T07:37:57.264Z,61600
2016-06-04T07:39:57.333Z,61280
2016-06-04T07:40:57.804Z,60736
2016-06-04T07:41:57.838Z,61952
2016-06-04T07:42:57.435Z,59776
2016-06-04T07:44:11.658Z,61120
2016-06-04T07:44:57.502Z,62240
2016-06-04T07:45:57.551Z,59904
2016-06-04T07:46:57.585Z,60960
2016-06-04T07:47:57.620Z,62688
2016-06-04T07:48:57.498Z,63040
2016-06-04T07:49:57.718Z,63552
2016-06-04T07:50:57.753Z,61248
2016-06-04T07:51:57.787Z,56320
2016-06-04T07:52:57.820Z,59200
2016-06-04T07:54:12.044Z,57408
2016-06-04T07:54:57.888Z,66144
2016-06-04T07:55:59.142Z,48128
2016-06-04T07:56:58.862Z,56768
2016-06-04T07:57:57.990Z,61600
2016-06-04T07:58:58.134Z,55136
2016-06-04T07:59:57.917Z,61024
2016-06-04T08:00:58.108Z,57696
2016-06-04T08:01:58.158Z,46176
2016-06-04T08:02:58.191Z,48768
2016-06-04T08:05:12.464Z,19808
2016-06-04T08:05:58.293Z,19616
2016-06-04T08:06:58.342Z,24256
2016-06-04T08:08:12.567Z,23648
2016-06-04T08:08:58.411Z,22080
2016-06-04T08:10:12.635Z,21440
2016-06-04T08:10:58.494Z,19456
2016-06-04T08:11:58.527Z,21056
2016-06-04T08:12:58.655Z,21088
2016-06-04T08:13:59.580Z,20992
2016-06-04T08:14:58.629Z,20768
2016-06-04T08:15:58.696Z,20800
2016-06-04T08:16:58.713Z,20832
2016-06-04T08:17:58.747Z,20672
2016-06-04T08:19:12.815Z,20640
2016-06-04T08:20:58.849Z,20288
2016-06-04T08:21:58.914Z,20000
2016-06-04T08:23:13.122Z,20096
2016-06-04T08:24:59.016Z,19840
2016-06-04T08:26:13.787Z,19744
2016-06-04T08:26:59.178Z,19936
2016-06-04T08:27:59.134Z,19744
2016-06-04T08:28:59.167Z,20096
2016-06-04T08:29:59.201Z,19872
2016-06-04T08:30:59.219Z,20384
2016-06-04T08:31:59.269Z,20352
2016-06-04T08:32:59.319Z,20160
2016-06-04T08:33:59.336Z,20000
2016-06-04T08:34:59.372Z,19488
2016-06-04T08:35:59.436Z,19168
2016-06-04T08:36:59.532Z,18688
2016-06-04T08:37:59.894Z,18528
2016-06-04T08:38:59.522Z,18304
2016-06-04T08:39:59.571Z,18336
2016-06-04T08:41:13.780Z,18304
2016-06-04T08:42:14.188Z,18592
2016-06-04T08:43:00.345Z,18592
2016-06-04T08:43:59.707Z,18592
2016-06-04T08:45:59.776Z,18592
2016-06-04T08:46:59.810Z,18400
2016-06-04T08:47:59.843Z,18336
2016-06-04T08:50:59.960Z,18368
2016-06-04T08:52:00.010Z,18464
2016-06-04T08:53:00.029Z,18368
2016-06-04T08:54:00.062Z,18304
2016-06-04T08:55:00.112Z,18144
2016-06-04T08:56:14.336Z,18176
2016-06-04T08:57:14.386Z,18144
2016-06-04T08:58:00.292Z,18176
2016-06-04T08:59:00.389Z,18112
2016-06-04T09:00:00.281Z,17984
2016-06-04T09:01:00.331Z,17952
2016-06-04T09:02:00.365Z,17824
2016-06-04T09:03:00.400Z,17792
2016-06-04T09:04:00.449Z,17452
2016-06-04T09:06:00.517Z,17424
2016-06-04T09:07:00.536Z,17360
2016-06-04T09:08:14.775Z,17300
2016-06-04T09:09:00.619Z,17200
2016-06-04T09:10:00.497Z,17056
2016-06-04T09:11:00.702Z,16816
2016-06-04T09:12:00.830Z,16868
2016-06-04T09:13:01.083Z,16704
2016-06-04T09:15:00.838Z,16612
2016-06-04T09:16:00.871Z,16636
2016-06-04T09:17:00.906Z,16636
2016-06-04T09:18:00.815Z,16592
2016-06-04T09:19:00.973Z,16600
2016-06-04T09:20:15.213Z,16572
2016-06-04T09:21:01.057Z,16496
2016-06-04T09:22:01.076Z,16440
2016-06-04T09:23:00.954Z,16444
2016-06-04T09:24:01.159Z,16420
2016-06-04T09:25:01.193Z,16428
2016-06-04T09:26:15.417Z,16332
2016-06-04T09:27:01.104Z,16268
2016-06-04T09:28:01.529Z,16192
2016-06-04T09:29:15.520Z,16068
2016-06-04T09:30:01.363Z,16012
2016-06-04T09:32:01.430Z,15844
2016-06-04T09:33:01.480Z,15780
2016-06-04T09:34:01.515Z,15728
2016-06-04T09:35:01.548Z,15668
2016-06-04T09:36:01.598Z,15624
2016-06-04T09:37:01.475Z,15556
2016-06-04T09:38:01.650Z,15436
2016-06-04T09:39:01.684Z,15364
2016-06-04T09:40:01.733Z,15328
2016-06-04T09:41:15.958Z,15320
2016-06-04T09:42:15.992Z,15396
2016-06-04T09:43:01.898Z,15384
2016-06-04T09:44:16.935Z,15284
2016-06-04T09:45:16.093Z,15276
2016-06-04T09:46:01.937Z,15196
2016-06-04T09:47:01.971Z,15076
2016-06-04T09:48:02.005Z,14900
2016-06-04T09:49:02.054Z,14840
2016-06-04T09:50:02.073Z,14852
2016-06-04T09:51:02.107Z,14844
2016-06-04T09:52:02.141Z,14728
2016-06-04T09:53:02.190Z,14712
2016-06-04T09:54:02.208Z,14648
2016-06-04T09:55:02.118Z,14728
2016-06-04T09:56:16.482Z,14840
2016-06-04T09:57:02.342Z,14844
2016-06-04T09:58:03.656Z,14792
2016-06-04T09:59:03.019Z,14712
2016-06-04T10:00:16.618Z,14600
2016-06-04T10:01:19.620Z,14504
2016-06-04T10:02:02.495Z,14488
2016-06-04T10:03:02.545Z,14544
2016-06-04T10:04:02.564Z,14524
2016-06-04T10:05:02.457Z,14484
2016-06-04T10:06:02.664Z,14512
2016-06-04T10:07:02.726Z,14592
2016-06-04T10:09:02.850Z,14968
2016-06-04T10:10:02.942Z,15112
2016-06-04T10:11:02.961Z,15208
2016-06-04T10:12:03.005Z,14824
2016-06-04T10:13:03.612Z,14552
2016-06-04T10:14:03.938Z,14300
2016-06-04T10:15:03.153Z,14596
2016-06-04T10:16:03.209Z,14460
2016-06-04T10:17:17.407Z,14364
2016-06-04T10:18:03.126Z,14356
2016-06-04T10:19:03.304Z,14416
2016-06-04T10:20:03.186Z,14176
2016-06-04T10:21:03.238Z,14044
2016-06-04T10:22:03.413Z,14008
2016-06-04T10:23:03.464Z,14148
2016-06-04T10:24:03.343Z,8368
2016-06-04T10:25:03.520Z,14416
2016-06-04T10:26:03.554Z,14204
2016-06-04T10:27:03.448Z,14444
2016-06-04T10:28:03.983Z,14676
2016-06-04T10:29:03.673Z,14544
2016-06-04T10:30:03.692Z,14188
2016-06-04T10:31:17.947Z,14400
2016-06-04T10:32:17.950Z,14576
2016-06-04T10:33:03.794Z,14508
2016-06-04T10:34:03.843Z,14564
2016-06-04T10:37:03.929Z,14556
2016-06-04T10:38:03.963Z,14816
2016-06-04T10:39:03.998Z,14916
2016-06-04T10:40:18.221Z,14732
2016-06-04T10:41:04.065Z,14568
2016-06-04T10:42:04.099Z,14068
2016-06-04T10:43:05.337Z,14076
2016-06-04T10:44:04.418Z,14200
2016-06-04T10:45:04.311Z,14048
2016-06-04T10:46:04.079Z,12716
2016-06-04T10:47:04.284Z,14260
2016-06-04T10:48:04.304Z,8748
2016-06-04T10:49:04.353Z,8800
2016-06-04T10:50:04.370Z,12624
2016-06-04T10:51:04.405Z,13876
2016-06-04T10:52:04.439Z,13708
2016-06-04T10:53:04.473Z,13328
2016-06-04T10:55:04.541Z,11716
2016-06-04T10:56:18.764Z,8992
2016-06-04T10:57:18.799Z,12340
2016-06-04T10:58:05.830Z,13124
2016-06-04T10:59:04.676Z,13088
2016-06-04T11:00:04.711Z,13148
2016-06-04T11:01:04.744Z,13064
2016-06-04T11:02:18.969Z,12944
2016-06-04T11:03:04.813Z,12324
2016-06-04T11:05:04.880Z,11608
2016-06-04T11:06:04.930Z,13156
2016-06-04T11:07:04.948Z,13364
2016-06-04T11:09:05.016Z,12736
2016-06-04T11:10:05.049Z,12768
2016-06-04T11:11:05.068Z,12672
2016-06-04T11:12:05.101Z,12820
2016-06-04T11:13:05.933Z,12852
2016-06-04T11:14:05.201Z,12864
2016-06-04T11:15:05.204Z,12864
2016-06-04T11:16:05.238Z,12804
2016-06-04T11:17:05.273Z,12864
2016-06-04T11:18:05.321Z,12908
2016-06-04T11:19:05.356Z,12692
2016-06-04T11:20:19.564Z,12368
2016-06-04T11:21:05.408Z,12220
2016-06-04T11:22:05.457Z,11996
2016-06-04T11:23:05.475Z,11924
2016-06-04T11:24:05.509Z,11728
2016-06-04T11:25:05.559Z,11400
2016-06-04T11:27:05.627Z,11192
2016-06-04T11:28:05.677Z,11152
2016-06-04T11:29:05.664Z,11000
2016-06-04T11:30:19.903Z,10520
2016-06-04T11:31:05.778Z,10284
2016-06-04T11:32:05.766Z,10304
2016-06-04T11:33:05.799Z,10184
2016-06-04T11:34:05.833Z,10052
2016-06-04T11:35:05.867Z,9988
2016-06-04T11:37:05.951Z,9716
2016-06-04T11:38:05.968Z,9676
2016-06-04T11:39:06.003Z,9868
2016-06-04T11:40:06.037Z,10012
2016-06-04T11:42:06.604Z,9556
2016-06-04T11:43:06.123Z,9456
2016-06-04T11:44:06.156Z,9616
2016-06-04T11:45:06.207Z,9748
2016-06-04T11:46:06.225Z,9768
2016-06-04T11:47:06.258Z,9640
2016-06-04T11:48:06.293Z,9580
2016-06-04T11:49:06.327Z,9524
2016-06-04T11:50:06.361Z,9452
2016-06-04T11:52:20.603Z,9448
2016-06-04T11:53:06.462Z,9412
2016-06-04T11:54:06.481Z,9356
2016-06-04T11:56:06.517Z,9232
2016-06-04T11:57:06.738Z,9232
2016-06-04T11:58:06.617Z,9108
2016-06-04T11:59:06.494Z,9092
2016-06-04T12:00:06.684Z,9016
2016-06-04T12:01:06.719Z,9068
2016-06-04T12:02:06.736Z,9120
2016-06-04T12:03:06.786Z,8908
2016-06-04T12:04:21.152Z,8688
2016-06-04T12:05:21.029Z,8656
2016-06-04T12:06:06.872Z,7728
2016-06-04T12:07:20.955Z,9180
2016-06-04T12:09:06.975Z,9548
2016-06-04T12:10:07.055Z,9464
2016-06-04T12:11:07.683Z,10084
2016-06-04T12:12:07.091Z,9740
2016-06-04T12:13:07.110Z,9660
2016-06-04T12:14:07.144Z,9608
2016-06-04T12:15:07.178Z,8956
2016-06-04T12:16:07.196Z,9076
2016-06-04T12:17:07.449Z,9340
2016-06-04T12:18:07.264Z,8668
2016-06-04T12:19:07.298Z,8544
2016-06-04T12:20:07.332Z,7932
2016-06-04T12:21:21.556Z,7100
2016-06-04T12:22:07.384Z,8288
2016-06-04T12:23:07.450Z,7708
2016-06-04T12:24:07.467Z,8384
2016-06-04T12:25:07.501Z,7776
2016-06-04T12:26:07.520Z,8056
2016-06-04T12:27:07.553Z,9168
2016-06-04T12:28:07.448Z,7636
2016-06-04T12:29:07.731Z,8256
2016-06-04T12:30:07.672Z,7512
2016-06-04T12:31:07.674Z,7916
2016-06-04T12:32:07.724Z,8876
2016-06-04T12:33:07.742Z,8188
2016-06-04T12:34:07.791Z,8360
2016-06-04T12:36:22.034Z,8384
2016-06-04T12:37:07.878Z,8712
2016-06-04T12:38:07.911Z,8684
2016-06-04T12:39:22.136Z,7388
2016-06-04T12:40:07.964Z,7268
2016-06-04T12:41:07.998Z,7596
2016-06-04T12:42:08.047Z,8568
2016-06-04T12:43:08.925Z,8272
2016-06-04T12:44:08.115Z,8664
2016-06-04T12:45:08.149Z,8892
2016-06-04T12:46:08.182Z,7696
2016-06-04T12:47:08.186Z,8360
2016-06-04T12:48:22.441Z,7372
2016-06-04T12:49:08.254Z,7368
2016-06-04T12:50:08.522Z,7652
2016-06-04T12:51:08.321Z,8032
2016-06-04T12:52:08.356Z,8584
2016-06-04T12:53:22.423Z,8088
2016-06-04T12:54:08.423Z,7864
2016-06-04T12:55:22.632Z,8412
2016-06-04T12:56:23.447Z,7776
2016-06-04T12:57:08.353Z,7896
2016-06-04T12:58:08.575Z,7868
2016-06-04T12:59:08.593Z,7808
2016-06-04T13:00:08.627Z,7704
2016-06-04T13:01:08.661Z,8028
2016-06-04T13:02:22.714Z,7908
2016-06-04T13:03:08.714Z,8024
2016-06-04T13:04:08.731Z,7000
2016-06-04T13:05:08.766Z,7320
2016-06-04T13:06:08.847Z,7956
2016-06-04T13:07:23.024Z,7272
2016-06-04T13:08:08.711Z,7268
2016-06-04T13:10:08.935Z,7824
2016-06-04T13:11:23.144Z,7348
2016-06-04T13:12:10.175Z,7808
2016-06-04T13:13:10.991Z,7672
2016-06-04T13:14:10.149Z,7852
2016-06-04T13:15:09.073Z,7808
2016-06-04T13:16:09.124Z,7452
2016-06-04T13:17:09.141Z,7872
2016-06-04T13:18:09.019Z,8800
2016-06-04T13:19:09.226Z,7724
2016-06-04T13:20:09.259Z,8020
2016-06-04T13:21:09.276Z,8324
2016-06-04T13:22:10.140Z,7748
2016-06-04T13:23:09.345Z,7324
2016-06-04T13:25:23.588Z,7380
2016-06-04T13:26:10.010Z,8220
2016-06-04T13:27:23.656Z,7572
2016-06-04T13:28:09.500Z,8588
2016-06-04T13:29:09.517Z,8296
2016-06-04T13:30:09.551Z,7132
2016-06-04T13:32:09.620Z,4628
2016-06-04T13:33:09.653Z,7820
2016-06-04T13:34:09.672Z,7748
2016-06-04T13:35:09.722Z,7108
2016-06-04T13:36:09.755Z,8468
2016-06-04T13:37:09.774Z,7604
2016-06-04T13:38:09.823Z,8004
2016-06-04T13:39:09.858Z,7304
2016-06-04T13:40:09.875Z,7872
2016-06-04T13:41:09.940Z,6824
2016-06-04T13:43:11.008Z,5400
2016-06-04T13:44:10.480Z,6948
2016-06-04T13:45:10.030Z,6936
2016-06-04T13:46:09.907Z,7280
2016-06-04T13:47:10.097Z,6160
2016-06-04T13:48:10.132Z,4104
2016-06-04T13:49:10.165Z,6908
2016-06-04T13:50:10.184Z,4956
2016-06-04T13:52:10.251Z,6816
2016-06-04T13:53:10.285Z,6660
2016-06-04T13:54:24.493Z,6940
2016-06-04T13:55:10.353Z,6804
2016-06-04T13:56:24.562Z,4572
2016-06-04T13:57:10.406Z,5276
2016-06-04T13:58:11.596Z,5084
2016-06-04T13:59:10.317Z,4340
2016-06-04T14:00:10.492Z,6728
2016-06-04T14:01:10.525Z,6896
2016-06-04T14:02:10.559Z,6912
2016-06-04T14:03:10.594Z,6920
2016-06-04T14:06:10.742Z,6940
2016-06-04T14:08:24.938Z,6848
2016-06-04T14:09:10.766Z,6884
2016-06-04T14:10:10.816Z,6828
2016-06-04T14:11:11.286Z,6872
2016-06-04T14:12:12.446Z,6852
2016-06-04T14:14:25.110Z,6808
2016-06-04T14:15:10.954Z,6856
2016-06-04T14:16:10.988Z,6712
2016-06-04T14:17:11.021Z,6712
2016-06-04T14:18:11.040Z,6664
2016-06-04T14:19:11.090Z,6624
2016-06-04T14:20:10.967Z,6712
2016-06-04T14:21:25.332Z,6752
2016-06-04T14:22:14.254Z,6676
2016-06-04T14:23:11.209Z,6656
2016-06-04T14:24:11.228Z,6684
2016-06-04T14:25:11.121Z,6532
2016-06-04T14:26:11.156Z,6548